Lake Lenore, Canada
Current Conditions -  °F | °C
As of 10:00 PM on Saturday 20 Dec 2014 (Local Time) from CYPA Reporting Station
Light Snow Light Snow  
Wind Chill: 19°   Ceiling: 400
Heat Index: 19°   Visibility: 1mi
Dew Point: 19°   Wind: 3mph
Humidity: 100%   Direction: 70°ENE
Pressure: 29.64"   Gusts: NA
Location:  52.4°N, 104.98°W
Report Text: CYPA 210400Z 07003KT 1SM R08/4500FT/N -SG BR OVC004 M07/M07 A2964 RMK FG3ST5 SLP066
Loading
Personal Weather Stations






























Interactive Weather Map New forecast layout! Learn more

10-Day Weather Forecast

Advertisements
Track Severe Weather on mobile